createdAt,value
2016-05-22T00:00:08.716Z,16.4
2016-05-22T00:00:18.813Z,16.4
2016-05-22T00:00:28.688Z,16.4
2016-05-22T00:00:38.813Z,16.4
2016-05-22T00:00:48.829Z,16.4
2016-05-22T00:00:58.844Z,16.5
2016-05-22T00:01:08.829Z,16.5
2016-05-22T00:01:18.846Z,16.5
2016-05-22T00:01:28.831Z,16.5
2016-05-22T00:01:38.799Z,16.5
2016-05-22T00:01:48.799Z,16.4
2016-05-22T00:01:58.799Z,16.5
2016-05-22T00:02:08.831Z,16.5
2016-05-22T00:02:18.818Z,16.4
2016-05-22T00:02:28.802Z,16.5
2016-05-22T00:02:38.787Z,16.5
2016-05-22T00:02:48.802Z,16.5
2016-05-22T00:02:58.787Z,16.5
2016-05-22T00:03:08.802Z,16.5
2016-05-22T00:03:18.633Z,16.5
2016-05-22T00:03:28.790Z,16.5
2016-05-22T00:03:38.633Z,16.5
2016-05-22T00:03:48.774Z,16.5
2016-05-22T00:03:58.774Z,16.5
2016-05-22T00:04:08.774Z,16.5
2016-05-22T00:04:18.792Z,16.5
2016-05-22T00:04:28.760Z,16.5
2016-05-22T00:04:38.620Z,16.5
2016-05-22T00:04:48.776Z,16.5
2016-05-22T00:04:59.604Z,16.5
2016-05-22T00:05:10.917Z,16.5
2016-05-22T00:05:21.373Z,16.5
2016-05-22T00:05:31.170Z,16.5
2016-05-22T00:05:41.263Z,16.5
2016-05-22T00:05:51.263Z,16.5
2016-05-22T00:06:01.295Z,16.5
2016-05-22T00:06:11.248Z,16.5
2016-05-22T00:06:21.251Z,16.5
2016-05-22T00:06:31.282Z,16.5
2016-05-22T00:06:41.282Z,16.5
2016-05-22T00:06:51.266Z,16.5
2016-05-22T00:07:01.095Z,16.5
2016-05-22T00:07:11.235Z,16.5
2016-05-22T00:07:21.237Z,16.5
2016-05-22T00:07:31.222Z,16.5
2016-05-22T00:07:41.237Z,16.5
2016-05-22T00:07:51.222Z,16.5
2016-05-22T00:08:01.065Z,16.5
2016-05-22T00:08:11.237Z,16.5
2016-05-22T00:08:21.226Z,16.5
2016-05-22T00:08:31.241Z,16.5
2016-05-22T00:08:41.069Z,16.4
2016-05-22T00:08:51.241Z,16.4
2016-05-22T00:09:01.226Z,16.4
2016-05-22T00:09:11.210Z,16.4
2016-05-22T00:09:21.212Z,16.4
2016-05-22T00:09:31.228Z,16.4
2016-05-22T00:09:41.212Z,16.4
2016-05-22T00:09:51.228Z,16.4
2016-05-22T00:10:01.056Z,16.4
2016-05-22T00:10:11.212Z,16.4
2016-05-22T00:10:21.198Z,16.4
2016-05-22T00:10:31.214Z,16.4
2016-05-22T00:10:41.042Z,16.4
2016-05-22T00:10:51.183Z,16.4
2016-05-22T00:11:01.214Z,16.4
2016-05-22T00:11:11.214Z,16.4
2016-05-22T00:11:21.312Z,16.4
2016-05-22T00:11:31.187Z,16.4
2016-05-22T00:11:41.218Z,16.4
2016-05-22T00:11:51.202Z,16.5
2016-05-22T00:12:01.202Z,16.4
2016-05-22T00:12:11.249Z,16.4
2016-05-22T00:12:21.189Z,16.4
2016-05-22T00:12:31.189Z,16.4
2016-05-22T00:12:41.173Z,16.4
2016-05-22T00:12:51.173Z,16.4
2016-05-22T00:13:01.173Z,16.4
2016-05-22T00:13:12.113Z,16.4
2016-05-22T00:13:23.644Z,16.4
2016-05-22T00:13:35.175Z,16.4
2016-05-22T00:13:43.941Z,16.4
2016-05-22T00:13:53.941Z,16.4
2016-05-22T00:14:03.784Z,16.4
2016-05-22T00:14:13.929Z,16.4
2016-05-22T00:14:23.992Z,16.4
2016-05-22T00:14:34.070Z,16.3
2016-05-22T00:14:43.773Z,16.3
2016-05-22T00:14:53.929Z,16.3
2016-05-22T00:15:03.913Z,16.3
2016-05-22T00:15:13.915Z,16.2
2016-05-22T00:15:23.915Z,16.3
2016-05-22T00:15:33.915Z,16.3
2016-05-22T00:15:43.915Z,16.2
2016-05-22T00:15:53.915Z,16.3
2016-05-22T00:16:03.931Z,16.2
2016-05-22T00:16:13.918Z,16.2
2016-05-22T00:16:23.903Z,16.2
2016-05-22T00:16:33.903Z,16.2
2016-05-22T00:16:43.903Z,16.2
2016-05-22T00:16:53.903Z,16.2
2016-05-22T00:17:03.903Z,16.2
2016-05-22T00:17:13.905Z,16.2
2016-05-22T00:17:23.905Z,16.2
2016-05-22T00:17:33.905Z,16.1
2016-05-22T00:17:43.889Z,16.1
2016-05-22T00:17:53.889Z,16.1
2016-05-22T00:18:03.889Z,16.1
2016-05-22T00:18:13.892Z,16.1
2016-05-22T00:18:23.892Z,16.1
2016-05-22T00:18:33.892Z,16.1
2016-05-22T00:18:43.877Z,16.1
2016-05-22T00:18:53.892Z,16
2016-05-22T00:19:03.861Z,16
2016-05-22T00:19:13.880Z,16
2016-05-22T00:19:23.864Z,16
2016-05-22T00:19:33.864Z,16
2016-05-22T00:19:43.880Z,16
2016-05-22T00:19:53.864Z,16
2016-05-22T00:20:03.708Z,16
2016-05-22T00:20:13.850Z,16
2016-05-22T00:20:23.866Z,16
2016-05-22T00:20:33.850Z,16
2016-05-22T00:20:43.850Z,16
2016-05-22T00:20:53.850Z,16
2016-05-22T00:21:03.694Z,16
2016-05-22T00:21:13.853Z,15.9
2016-05-22T00:21:23.869Z,15.9
2016-05-22T00:21:34.885Z,15.9
2016-05-22T00:21:46.431Z,15.9
2016-05-22T00:21:55.744Z,15.9
2016-05-22T00:22:05.681Z,15.9
2016-05-22T00:22:15.700Z,15.9
2016-05-22T00:22:25.684Z,15.9
2016-05-22T00:22:35.684Z,15.9
2016-05-22T00:22:45.700Z,15.9
2016-05-22T00:22:55.684Z,15.9
2016-05-22T00:23:05.684Z,15.9
2016-05-22T00:23:15.671Z,15.9
2016-05-22T00:23:25.671Z,15.9
2016-05-22T00:23:35.671Z,15.9
2016-05-22T00:23:45.515Z,15.9
2016-05-22T00:23:55.686Z,15.9
2016-05-22T00:24:05.686Z,15.9
2016-05-22T00:24:15.675Z,15.9
2016-05-22T00:24:25.659Z,15.9
2016-05-22T00:24:35.659Z,15.9
2016-05-22T00:24:45.675Z,15.9
2016-05-22T00:24:55.690Z,15.9
2016-05-22T00:25:05.659Z,15.8
2016-05-22T00:25:15.849Z,15.9
2016-05-22T00:25:25.739Z,15.9
2016-05-22T00:25:35.708Z,15.9
2016-05-22T00:25:45.677Z,15.9
2016-05-22T00:25:55.661Z,15.9
2016-05-22T00:26:05.646Z,15.9
2016-05-22T00:26:15.632Z,15.8
2016-05-22T00:26:25.648Z,15.9
2016-05-22T00:26:35.648Z,15.8
2016-05-22T00:26:45.632Z,15.8
2016-05-22T00:26:55.632Z,15.8
2016-05-22T00:27:05.616Z,15.8
2016-05-22T00:27:16.058Z,15.8
2016-05-22T00:27:25.636Z,15.8
2016-05-22T00:27:35.698Z,15.8
2016-05-22T00:27:46.245Z,15.7
2016-05-22T00:27:55.636Z,15.7
2016-05-22T00:28:06.152Z,15.7
2016-05-22T00:28:15.466Z,15.7
2016-05-22T00:28:25.622Z,15.7
2016-05-22T00:28:35.607Z,15.7
2016-05-22T00:28:45.607Z,15.7
2016-05-22T00:28:55.450Z,15.7
2016-05-22T00:29:06.107Z,15.6
2016-05-22T00:29:15.610Z,15.7
2016-05-22T00:29:25.594Z,15.7
2016-05-22T00:29:35.453Z,15.6
2016-05-22T00:29:45.610Z,15.6
2016-05-22T00:29:55.828Z,15.6
2016-05-22T00:30:06.610Z,15.6
2016-05-22T00:30:15.924Z,15.6
2016-05-22T00:30:25.877Z,15.6
2016-05-22T00:30:35.862Z,15.6
2016-05-22T00:30:45.862Z,15.6
2016-05-22T00:30:55.862Z,15.6
2016-05-22T00:31:05.862Z,15.5
2016-05-22T00:31:15.865Z,15.5
2016-05-22T00:31:25.865Z,15.5
2016-05-22T00:31:35.849Z,15.5
2016-05-22T00:31:45.865Z,15.5
2016-05-22T00:31:55.865Z,15.4
2016-05-22T00:32:05.849Z,15.4
2016-05-22T00:32:15.852Z,15.4
2016-05-22T00:32:25.852Z,15.4
2016-05-22T00:32:35.836Z,15.4
2016-05-22T00:32:45.852Z,15.4
2016-05-22T00:32:55.836Z,15.4
2016-05-22T00:33:05.836Z,15.4
2016-05-22T00:33:15.838Z,15.4
2016-05-22T00:33:25.823Z,15.4
2016-05-22T00:33:35.823Z,15.4
2016-05-22T00:33:45.838Z,15.4
2016-05-22T00:33:55.823Z,15.5
2016-05-22T00:34:05.823Z,15.4
2016-05-22T00:34:15.826Z,15.4
2016-05-22T00:34:25.670Z,15.4
2016-05-22T00:34:35.810Z,15.5
2016-05-22T00:34:45.670Z,15.4
2016-05-22T00:34:55.810Z,15.5
2016-05-22T00:35:05.810Z,15.4
2016-05-22T00:35:15.813Z,15.4
2016-05-22T00:35:25.657Z,15.5
2016-05-22T00:35:35.813Z,15.5
2016-05-22T00:35:45.829Z,15.4
2016-05-22T00:35:55.798Z,15.4
2016-05-22T00:36:05.798Z,15.4
2016-05-22T00:36:15.801Z,15.4
2016-05-22T00:36:25.801Z,15.4
2016-05-22T00:36:35.785Z,15.5
2016-05-22T00:36:45.785Z,15.5
2016-05-22T00:36:55.785Z,15.5
2016-05-22T00:37:05.785Z,15.5
2016-05-22T00:37:15.787Z,15.5
2016-05-22T00:37:25.787Z,15.5
2016-05-22T00:37:35.928Z,15.5
2016-05-22T00:37:45.912Z,15.5
2016-05-22T00:37:55.615Z,15.5
2016-05-22T00:38:05.771Z,15.5
2016-05-22T00:38:15.774Z,15.5
2016-05-22T00:38:25.774Z,15.5
2016-05-22T00:38:35.759Z,15.5
2016-05-22T00:38:45.806Z,15.5
2016-05-22T00:38:55.759Z,15.5
2016-05-22T00:39:05.774Z,15.5
2016-05-22T00:39:15.762Z,15.5
2016-05-22T00:39:25.762Z,15.5
2016-05-22T00:39:35.746Z,15.5
2016-05-22T00:39:45.762Z,15.5
2016-05-22T00:39:55.590Z,15.6
2016-05-22T00:40:05.746Z,15.6
2016-05-22T00:40:15.748Z,15.6
2016-05-22T00:40:25.748Z,15.6
2016-05-22T00:40:35.748Z,15.6
2016-05-22T00:40:45.732Z,15.6
2016-05-22T00:40:55.732Z,15.6
2016-05-22T00:41:05.576Z,15.6
2016-05-22T00:41:15.735Z,15.6
2016-05-22T00:41:25.767Z,15.6
2016-05-22T00:41:35.735Z,15.6
2016-05-22T00:41:45.735Z,15.6
2016-05-22T00:41:55.720Z,15.6
2016-05-22T00:42:05.720Z,15.6
2016-05-22T00:42:15.988Z,15.6
2016-05-22T00:42:25.598Z,15.6
2016-05-22T00:42:35.738Z,15.6
2016-05-22T00:42:45.942Z,15.6
2016-05-22T00:42:55.723Z,15.6
2016-05-22T00:43:05.957Z,15.6
2016-05-22T00:43:15.725Z,15.6
2016-05-22T00:43:25.694Z,15.6
2016-05-22T00:43:35.756Z,15.6
2016-05-22T00:43:46.819Z,15.6
2016-05-22T00:43:58.412Z,15.6
2016-05-22T00:44:10.069Z,15.6
2016-05-22T00:44:18.854Z,15.7
2016-05-22T00:44:28.838Z,15.7
2016-05-22T00:44:38.838Z,15.7
2016-05-22T00:44:48.838Z,15.7
2016-05-22T00:44:58.682Z,15.7
2016-05-22T00:45:08.823Z,15.7
2016-05-22T00:45:18.840Z,15.7
2016-05-22T00:45:28.887Z,15.7
2016-05-22T00:45:38.825Z,15.8
2016-05-22T00:45:48.825Z,15.8
2016-05-22T00:45:58.825Z,15.8
2016-05-22T00:46:08.809Z,15.8
2016-05-22T00:46:18.827Z,15.8
2016-05-22T00:46:28.811Z,15.8
2016-05-22T00:46:38.811Z,15.8
2016-05-22T00:46:48.811Z,15.8
2016-05-22T00:46:58.811Z,15.8
2016-05-22T00:47:08.811Z,15.8
2016-05-22T00:47:18.799Z,15.8
2016-05-22T00:47:28.799Z,15.8
2016-05-22T00:47:38.815Z,15.9
2016-05-22T00:47:48.799Z,15.9
2016-05-22T00:47:58.799Z,15.9
2016-05-22T00:48:08.799Z,15.9
2016-05-22T00:48:18.801Z,15.9
2016-05-22T00:48:28.801Z,15.9
2016-05-22T00:48:38.629Z,15.9
2016-05-22T00:48:48.786Z,15.9
2016-05-22T00:48:58.770Z,15.9
2016-05-22T00:49:08.770Z,15.9
2016-05-22T00:49:18.772Z,15.9
2016-05-22T00:49:28.772Z,15.9
2016-05-22T00:49:38.772Z,15.9
2016-05-22T00:49:48.772Z,15.9
2016-05-22T00:49:58.772Z,15.9
2016-05-22T00:50:08.756Z,15.9
2016-05-22T00:50:18.759Z,15.9
2016-05-22T00:50:28.759Z,15.9
2016-05-22T00:50:38.759Z,15.9
2016-05-22T00:50:48.759Z,15.9
2016-05-22T00:50:58.759Z,15.9
2016-05-22T00:51:08.744Z,15.9
2016-05-22T00:51:18.747Z,15.9
2016-05-22T00:51:28.747Z,15.9
2016-05-22T00:51:38.778Z,15.9
2016-05-22T00:51:48.747Z,15.9
2016-05-22T00:51:58.747Z,15.8
2016-05-22T00:52:08.731Z,15.8
2016-05-22T00:52:18.750Z,15.8
2016-05-22T00:52:28.578Z,15.8
2016-05-22T00:52:38.734Z,15.9
2016-05-22T00:52:48.578Z,15.9
2016-05-22T00:52:58.719Z,15.9
2016-05-22T00:53:08.719Z,15.9
2016-05-22T00:53:18.736Z,15.9
2016-05-22T00:53:28.721Z,15.9
2016-05-22T00:53:38.564Z,15.9
2016-05-22T00:53:48.721Z,15.9
2016-05-22T00:53:58.705Z,15.9
2016-05-22T00:54:08.705Z,15.8
2016-05-22T00:54:18.708Z,15.9
2016-05-22T00:54:28.708Z,15.9
2016-05-22T00:54:38.708Z,15.8
2016-05-22T00:54:48.708Z,15.8
2016-05-22T00:54:58.692Z,15.8
2016-05-22T00:55:08.708Z,15.8
2016-05-22T00:55:18.695Z,15.8
2016-05-22T00:55:28.695Z,15.8
2016-05-22T00:55:38.867Z,15.8
2016-05-22T00:55:48.695Z,15.8
2016-05-22T00:55:58.680Z,15.8
2016-05-22T00:56:08.695Z,15.7
2016-05-22T00:56:18.682Z,15.7
2016-05-22T00:56:28.682Z,15.7
2016-05-22T00:56:38.697Z,15.7
2016-05-22T00:56:48.682Z,15.7
2016-05-22T00:56:58.682Z,15.7
2016-05-22T00:57:08.682Z,15.7
2016-05-22T00:57:18.857Z,15.7
2016-05-22T00:57:28.669Z,15.7
2016-05-22T00:57:38.685Z,15.7
2016-05-22T00:57:48.669Z,15.7
2016-05-22T00:57:58.669Z,15.7
2016-05-22T00:58:08.669Z,15.7
2016-05-22T00:58:18.672Z,15.7
2016-05-22T00:58:28.672Z,15.7
2016-05-22T00:58:38.656Z,15.7
2016-05-22T00:58:48.672Z,15.7
2016-05-22T00:58:58.656Z,15.7
2016-05-22T00:59:08.641Z,15.7
2016-05-22T00:59:18.644Z,15.7
2016-05-22T00:59:28.659Z,15.6
2016-05-22T00:59:38.644Z,15.6
2016-05-22T00:59:48.644Z,15.6
2016-05-22T00:59:58.628Z,15.6
2016-05-22T01:00:08.628Z,15.5
2016-05-22T01:00:18.646Z,15.5
2016-05-22T01:00:28.755Z,15.5
2016-05-22T01:00:38.630Z,15.5
2016-05-22T01:00:48.630Z,15.5
2016-05-22T01:00:58.630Z,15.5
2016-05-22T01:01:08.630Z,15.5
2016-05-22T01:01:18.633Z,15.6
2016-05-22T01:01:28.618Z,15.6
2016-05-22T01:01:38.618Z,15.6
2016-05-22T01:01:48.618Z,15.6
2016-05-22T01:01:58.461Z,15.5
2016-05-22T01:02:08.602Z,15.5
2016-05-22T01:02:18.620Z,15.6
2016-05-22T01:02:28.604Z,15.5
2016-05-22T01:02:38.448Z,15.5
2016-05-22T01:02:48.604Z,15.5
2016-05-22T01:02:58.791Z,15.5
2016-05-22T01:03:08.604Z,15.5
2016-05-22T01:03:18.591Z,15.5
2016-05-22T01:03:28.607Z,15.6
2016-05-22T01:03:38.435Z,15.6
2016-05-22T01:03:48.591Z,15.5
2016-05-22T01:03:58.576Z,15.5
2016-05-22T01:04:08.591Z,15.5
2016-05-22T01:04:18.579Z,15.5
2016-05-22T01:04:28.422Z,15.5
2016-05-22T01:04:38.579Z,15.5
2016-05-22T01:04:48.579Z,15.4
2016-05-22T01:04:58.579Z,15.4
2016-05-22T01:05:08.579Z,15.4
2016-05-22T01:05:18.596Z,15.4
2016-05-22T01:05:28.565Z,15.4
2016-05-22T01:05:38.565Z,15.4
2016-05-22T01:05:48.409Z,15.4
2016-05-22T01:05:58.565Z,15.4
2016-05-22T01:06:08.549Z,15.4
2016-05-22T01:06:18.552Z,15.3
2016-05-22T01:06:28.568Z,15.4
2016-05-22T01:06:38.552Z,15.4
2016-05-22T01:06:48.552Z,15.4
2016-05-22T01:06:58.724Z,15.4
2016-05-22T01:07:08.552Z,15.4
2016-05-22T01:07:18.540Z,15.4
2016-05-22T01:07:28.540Z,15.4
2016-05-22T01:07:38.540Z,15.4
2016-05-22T01:07:48.524Z,15.4
2016-05-22T01:07:58.540Z,15.4
2016-05-22T01:08:08.524Z,15.4
2016-05-22T01:08:18.527Z,15.3
2016-05-22T01:08:28.543Z,15.4
2016-05-22T01:08:38.527Z,15.4
2016-05-22T01:08:48.371Z,15.4
2016-05-22T01:08:58.527Z,15.4
2016-05-22T01:09:08.512Z,15.3
2016-05-22T01:09:18.514Z,15.4
2016-05-22T01:09:28.451Z,15.4
2016-05-22T01:09:38.514Z,15.4
2016-05-22T01:09:48.514Z,15.3
2016-05-22T01:09:58.498Z,15.3
2016-05-22T01:10:08.514Z,15.3
2016-05-22T01:10:18.501Z,15.3
2016-05-22T01:10:28.501Z,15.3
2016-05-22T01:10:38.501Z,15.3
2016-05-22T01:10:48.485Z,15.3
2016-05-22T01:10:58.501Z,15.3
2016-05-22T01:11:08.485Z,15.3
2016-05-22T01:11:18.488Z,15.2
2016-05-22T01:11:28.488Z,15.2
2016-05-22T01:11:38.488Z,15.2
2016-05-22T01:11:48.332Z,15.2
2016-05-22T01:11:58.488Z,15.2
2016-05-22T01:12:08.473Z,15.2
2016-05-22T01:12:18.475Z,15.2
2016-05-22T01:12:28.865Z,15.2
2016-05-22T01:12:38.975Z,15.2
2016-05-22T01:12:48.318Z,15.2
2016-05-22T01:12:58.475Z,15.2
2016-05-22T01:13:08.459Z,15.2
2016-05-22T01:13:18.337Z,15.2
2016-05-22T01:13:28.306Z,15.1
2016-05-22T01:13:38.462Z,15.1
2016-05-22T01:13:48.556Z,15.1
2016-05-22T01:13:58.446Z,15.1
2016-05-22T01:14:08.462Z,15.1
2016-05-22T01:14:18.465Z,15.1
2016-05-22T01:14:28.449Z,15.1
2016-05-22T01:14:38.449Z,15.1
2016-05-22T01:14:48.449Z,15.1
2016-05-22T01:14:58.434Z,15
2016-05-22T01:15:08.434Z,15.1
2016-05-22T01:15:18.436Z,15.1
2016-05-22T01:15:28.436Z,15
2016-05-22T01:15:38.420Z,15
2016-05-22T01:15:48.451Z,15
2016-05-22T01:15:58.436Z,15
2016-05-22T01:16:08.420Z,15
2016-05-22T01:16:18.424Z,15
2016-05-22T01:16:28.424Z,15
2016-05-22T01:16:38.440Z,15
2016-05-22T01:16:48.409Z,15
2016-05-22T01:16:58.409Z,15
2016-05-22T01:17:08.409Z,14.9
2016-05-22T01:17:18.411Z,15
2016-05-22T01:17:28.411Z,15
2016-05-22T01:17:38.411Z,14.9
2016-05-22T01:17:48.411Z,14.9
2016-05-22T01:17:58.239Z,14.9
2016-05-22T01:18:08.395Z,14.9
2016-05-22T01:18:18.397Z,14.9
2016-05-22T01:18:28.397Z,14.9
2016-05-22T01:18:38.397Z,14.9
2016-05-22T01:18:48.397Z,14.8
2016-05-22T01:18:58.381Z,14.8
2016-05-22T01:19:08.397Z,14.8
2016-05-22T01:19:18.384Z,14.8
2016-05-22T01:19:28.384Z,14.8
2016-05-22T01:19:38.369Z,14.8
2016-05-22T01:19:48.369Z,14.8
2016-05-22T01:19:58.212Z,14.8
2016-05-22T01:20:08.369Z,14.8
2016-05-22T01:20:18.372Z,14.8
2016-05-22T01:20:28.387Z,14.8
2016-05-22T01:20:38.356Z,14.8
2016-05-22T01:20:48.356Z,14.8
2016-05-22T01:20:58.356Z,14.7
2016-05-22T01:21:08.356Z,14.7
2016-05-22T01:21:18.359Z,14.7
2016-05-22T01:21:28.359Z,14.7
2016-05-22T01:21:38.203Z,14.7
2016-05-22T01:21:48.343Z,14.7
2016-05-22T01:21:58.343Z,14.7
2016-05-22T01:22:08.343Z,14.7
2016-05-22T01:22:18.346Z,14.7
2016-05-22T01:22:28.362Z,14.7
2016-05-22T01:22:38.346Z,14.7
2016-05-22T01:22:48.346Z,14.7
2016-05-22T01:22:58.331Z,14.7
2016-05-22T01:23:08.378Z,14.7
2016-05-22T01:23:18.333Z,14.6
2016-05-22T01:23:28.333Z,14.6
2016-05-22T01:23:38.317Z,14.6
2016-05-22T01:23:48.333Z,14.6
2016-05-22T01:23:58.317Z,14.6
2016-05-22T01:24:08.317Z,14.6
2016-05-22T01:24:18.164Z,14.6
2016-05-22T01:24:28.305Z,14.6
2016-05-22T01:24:38.320Z,14.6
2016-05-22T01:24:48.305Z,14.6
2016-05-22T01:24:58.305Z,14.6
2016-05-22T01:25:08.305Z,14.6
2016-05-22T01:25:18.307Z,14.6
2016-05-22T01:25:28.322Z,14.7
2016-05-22T01:25:38.291Z,14.6
2016-05-22T01:25:48.307Z,14.6
2016-05-22T01:25:58.291Z,14.6
2016-05-22T01:26:08.291Z,14.6
2016-05-22T01:26:18.294Z,14.7
2016-05-22T01:26:28.294Z,14.6
2016-05-22T01:26:38.294Z,14.7
2016-05-22T01:26:48.278Z,14.7
2016-05-22T01:26:58.278Z,14.7
2016-05-22T01:27:08.294Z,14.7
2016-05-22T01:27:18.391Z,14.7
2016-05-22T01:27:28.453Z,14.7
2016-05-22T01:27:38.297Z,14.6
2016-05-22T01:27:48.281Z,14.6
2016-05-22T01:27:58.281Z,14.7
2016-05-22T01:28:08.125Z,14.7
2016-05-22T01:28:18.268Z,14.6
2016-05-22T01:28:28.268Z,14.6
2016-05-22T01:28:38.252Z,14.6
2016-05-22T01:28:48.268Z,14.7
2016-05-22T01:28:58.252Z,14.7
2016-05-22T01:29:08.236Z,14.7
2016-05-22T01:29:18.255Z,14.7
2016-05-22T01:29:28.286Z,14.6
2016-05-22T01:29:38.239Z,14.6
2016-05-22T01:29:48.255Z,14.6
2016-05-22T01:29:58.239Z,14.6
2016-05-22T01:30:08.255Z,14.6
2016-05-22T01:30:18.241Z,14.6
2016-05-22T01:30:28.241Z,14.6
2016-05-22T01:30:38.226Z,14.6
2016-05-22T01:30:48.226Z,14.5
2016-05-22T01:30:58.226Z,14.5
2016-05-22T01:31:08.241Z,14.5
2016-05-22T01:31:18.213Z,14.5
2016-05-22T01:31:28.229Z,14.5
2016-05-22T01:31:38.229Z,14.5
2016-05-22T01:31:48.213Z,14.5
2016-05-22T01:31:58.213Z,14.4
2016-05-22T01:32:08.213Z,14.5
2016-05-22T01:32:18.201Z,14.4
2016-05-22T01:32:28.201Z,14.4
2016-05-22T01:32:38.216Z,14.4
2016-05-22T01:32:48.201Z,14.4
2016-05-22T01:32:58.201Z,14.4
2016-05-22T01:33:08.201Z,14.4
2016-05-22T01:33:18.204Z,14.4
2016-05-22T01:33:28.204Z,14.4
2016-05-22T01:33:38.204Z,14.4
2016-05-22T01:33:48.188Z,14.4
2016-05-22T01:33:58.188Z,14.4
2016-05-22T01:34:08.188Z,14.4
2016-05-22T01:34:18.190Z,14.4
2016-05-22T01:34:28.190Z,14.4
2016-05-22T01:34:38.174Z,14.4
2016-05-22T01:34:48.174Z,14.4
2016-05-22T01:34:58.018Z,14.4
2016-05-22T01:35:08.174Z,14.4
2016-05-22T01:35:18.177Z,14.4
2016-05-22T01:35:28.162Z,14.4
2016-05-22T01:35:38.177Z,14.4
2016-05-22T01:35:48.162Z,14.4
2016-05-22T01:35:58.177Z,14.4
2016-05-22T01:36:08.162Z,14.4
2016-05-22T01:36:18.165Z,14.4
2016-05-22T01:36:28.165Z,14.4
2016-05-22T01:36:38.165Z,14.4
2016-05-22T01:36:48.149Z,14.4
2016-05-22T01:36:58.149Z,14.4
2016-05-22T01:37:07.993Z,14.4
2016-05-22T01:37:18.152Z,14.4
2016-05-22T01:37:28.136Z,14.3
2016-05-22T01:37:38.152Z,14.3
2016-05-22T01:37:47.996Z,14.3
2016-05-22T01:37:58.136Z,14.3
2016-05-22T01:38:08.136Z,14.3
2016-05-22T01:38:18.138Z,14.3
2016-05-22T01:38:28.123Z,14.3
2016-05-22T01:38:38.138Z,14.3
2016-05-22T01:38:48.123Z,14.3
2016-05-22T01:38:58.138Z,14.3
2016-05-22T01:39:08.123Z,14.3
2016-05-22T01:39:18.126Z,14.3
2016-05-22T01:39:28.126Z,14.3
2016-05-22T01:39:38.110Z,14.3
2016-05-22T01:39:48.110Z,14.3
2016-05-22T01:39:58.126Z,14.3
2016-05-22T01:40:08.110Z,14.2
2016-05-22T01:40:18.128Z,14.2
2016-05-22T01:40:28.097Z,14.2
2016-05-22T01:40:38.097Z,14.2
2016-05-22T01:40:48.081Z,14.2
2016-05-22T01:40:58.112Z,14.2
2016-05-22T01:41:08.097Z,14.2
2016-05-22T01:41:18.085Z,14.2
2016-05-22T01:41:28.101Z,14.2
2016-05-22T01:41:38.085Z,14.2
2016-05-22T01:41:48.085Z,14.3
2016-05-22T01:41:58.085Z,14.3
2016-05-22T01:42:08.507Z,14.3
2016-05-22T01:42:18.103Z,14.3
2016-05-22T01:42:28.087Z,14.3
2016-05-22T01:42:38.228Z,14.3
2016-05-22T01:42:48.243Z,14.2
2016-05-22T01:42:57.931Z,14.2
2016-05-22T01:43:08.056Z,14.2
2016-05-22T01:43:18.059Z,14.2
2016-05-22T01:43:28.090Z,14.3
2016-05-22T01:43:38.074Z,14.3
2016-05-22T01:43:48.059Z,14.3
2016-05-22T01:43:58.059Z,14.2
2016-05-22T01:44:08.043Z,14.2
2016-05-22T01:44:18.045Z,14.2
2016-05-22T01:44:28.061Z,14.2
2016-05-22T01:44:38.045Z,14.2
2016-05-22T01:44:47.889Z,14.3
2016-05-22T01:44:58.045Z,14.3
2016-05-22T01:45:08.045Z,14.3
2016-05-22T01:45:18.032Z,14.3
2016-05-22T01:45:27.892Z,14.3
2016-05-22T01:45:38.032Z,14.3
2016-05-22T01:45:48.032Z,14.3
2016-05-22T01:45:58.032Z,14.3
2016-05-22T01:46:08.017Z,14.2
2016-05-22T01:46:18.035Z,14.3
2016-05-22T01:46:27.879Z,14.2
2016-05-22T01:46:38.035Z,14.3
2016-05-22T01:46:48.020Z,14.2
2016-05-22T01:46:58.020Z,14.2
2016-05-22T01:47:07.864Z,14.2
2016-05-22T01:47:17.867Z,14.2
2016-05-22T01:47:28.023Z,14.2
2016-05-22T01:47:38.007Z,14.2
2016-05-22T01:47:47.992Z,14.2
2016-05-22T01:47:58.023Z,14.2
2016-05-22T01:48:07.992Z,14.2
2016-05-22T01:48:17.994Z,14.2
2016-05-22T01:48:28.009Z,14.2
2016-05-22T01:48:37.994Z,14.2
2016-05-22T01:48:47.994Z,14.2
2016-05-22T01:48:57.994Z,14.1
2016-05-22T01:49:07.978Z,14.1
2016-05-22T01:49:17.825Z,14.1
2016-05-22T01:49:27.981Z,14.1
2016-05-22T01:49:37.981Z,14.1
2016-05-22T01:49:47.965Z,14.1
2016-05-22T01:49:57.981Z,14.1
2016-05-22T01:50:07.965Z,14.1
2016-05-22T01:50:17.812Z,14
2016-05-22T01:50:27.968Z,14
2016-05-22T01:50:37.968Z,14
2016-05-22T01:50:47.968Z,14
2016-05-22T01:50:57.968Z,14
2016-05-22T01:51:07.953Z,14
2016-05-22T01:51:17.955Z,14
2016-05-22T01:51:27.955Z,14
2016-05-22T01:51:37.814Z,14
2016-05-22T01:51:47.955Z,14
2016-05-22T01:51:57.955Z,14
2016-05-22T01:52:07.955Z,13.9
2016-05-22T01:52:17.942Z,13.9
2016-05-22T01:52:27.958Z,13.9
2016-05-22T01:52:37.942Z,13.9
2016-05-22T01:52:47.942Z,13.9
2016-05-22T01:52:57.942Z,13.9
2016-05-22T01:53:07.926Z,13.9
2016-05-22T01:53:17.944Z,13.9
2016-05-22T01:53:27.944Z,13.9
2016-05-22T01:53:37.772Z,13.9
2016-05-22T01:53:47.928Z,13.8
2016-05-22T01:53:57.928Z,13.9
2016-05-22T01:54:07.913Z,13.8
2016-05-22T01:54:17.917Z,13.8
2016-05-22T01:54:27.917Z,13.8
2016-05-22T01:54:37.901Z,13.8
2016-05-22T01:54:47.901Z,13.8
2016-05-22T01:54:57.901Z,13.8
2016-05-22T01:55:07.917Z,13.8
2016-05-22T01:55:17.903Z,13.8
2016-05-22T01:55:27.903Z,13.8
2016-05-22T01:55:37.747Z,13.8
2016-05-22T01:55:47.888Z,13.8
2016-05-22T01:55:57.903Z,13.8
2016-05-22T01:56:07.747Z,13.7
2016-05-22T01:56:17.891Z,13.7
2016-05-22T01:56:27.891Z,13.7
2016-05-22T01:56:37.891Z,13.7
2016-05-22T01:56:47.734Z,13.7
2016-05-22T01:56:57.891Z,13.7
2016-05-22T01:57:07.891Z,13.7
2016-05-22T01:57:17.893Z,13.8
2016-05-22T01:57:27.877Z,13.8
2016-05-22T01:57:38.049Z,13.8
2016-05-22T01:57:47.861Z,13.8
2016-05-22T01:57:57.705Z,13.8
2016-05-22T01:58:07.705Z,13.8
2016-05-22T01:58:17.708Z,13.8
2016-05-22T01:58:27.724Z,13.8
2016-05-22T01:58:37.708Z,13.8
2016-05-22T01:58:47.864Z,13.7
2016-05-22T01:58:57.849Z,13.7
2016-05-22T01:59:07.849Z,13.7
2016-05-22T01:59:17.852Z,13.7
2016-05-22T01:59:27.852Z,13.7
2016-05-22T01:59:38.289Z,13.7
2016-05-22T01:59:47.852Z,13.7
2016-05-22T01:59:57.836Z,13.7
2016-05-22T02:00:07.852Z,13.7
2016-05-22T02:00:17.839Z,13.7
2016-05-22T02:00:27.839Z,13.7
2016-05-22T02:00:37.839Z,13.7
2016-05-22T02:00:47.683Z,13.7
2016-05-22T02:00:57.823Z,13.7
2016-05-22T02:01:07.667Z,13.7
2016-05-22T02:01:17.825Z,13.7
2016-05-22T02:01:27.841Z,13.7
2016-05-22T02:01:37.825Z,13.7
2016-05-22T02:01:47.810Z,13.8
2016-05-22T02:01:57.810Z,13.7
2016-05-22T02:02:07.810Z,13.8
2016-05-22T02:02:17.813Z,13.7
2016-05-22T02:02:27.813Z,13.7
2016-05-22T02:02:37.797Z,13.7
2016-05-22T02:02:47.797Z,13.7
2016-05-22T02:02:57.813Z,13.7
2016-05-22T02:03:07.797Z,13.7
2016-05-22T02:03:17.799Z,13.7
2016-05-22T02:03:27.784Z,13.7
2016-05-22T02:03:37.784Z,13.7
2016-05-22T02:03:47.784Z,13.7
2016-05-22T02:03:57.784Z,13.8
2016-05-22T02:04:07.627Z,13.8
2016-05-22T02:04:17.772Z,13.8
2016-05-22T02:04:27.772Z,13.7
2016-05-22T02:04:37.772Z,13.8
2016-05-22T02:04:47.772Z,13.8
2016-05-22T02:04:57.788Z,13.8
2016-05-22T02:05:07.772Z,13.8
2016-05-22T02:05:17.774Z,13.8
2016-05-22T02:05:27.774Z,13.8
2016-05-22T02:05:37.758Z,13.8
2016-05-22T02:05:47.758Z,13.8
2016-05-22T02:05:57.758Z,13.8
2016-05-22T02:06:07.649Z,13.8
2016-05-22T02:06:17.760Z,13.9
2016-05-22T02:06:27.760Z,13.8
2016-05-22T02:06:37.745Z,13.8
2016-05-22T02:06:47.745Z,13.9
2016-05-22T02:06:57.745Z,13.9
2016-05-22T02:07:07.729Z,13.9
2016-05-22T02:07:17.749Z,13.9
2016-05-22T02:07:27.733Z,13.9
2016-05-22T02:07:37.592Z,13.9
2016-05-22T02:07:47.577Z,13.9
2016-05-22T02:07:57.733Z,13.9
2016-05-22T02:08:07.733Z,13.9
2016-05-22T02:08:17.719Z,13.9
2016-05-22T02:08:27.735Z,13.9
2016-05-22T02:08:37.719Z,13.9
2016-05-22T02:08:47.719Z,13.9
2016-05-22T02:08:57.719Z,13.9
2016-05-22T02:09:07.704Z,13.9
2016-05-22T02:09:17.722Z,13.9
2016-05-22T02:09:27.707Z,13.9
2016-05-22T02:09:37.707Z,13.9
2016-05-22T02:09:47.707Z,13.9
2016-05-22T02:09:57.707Z,13.9
2016-05-22T02:10:07.691Z,13.9
2016-05-22T02:10:17.693Z,13.9
2016-05-22T02:10:27.693Z,13.9
2016-05-22T02:10:37.693Z,13.9
2016-05-22T02:10:47.537Z,13.9
2016-05-22T02:10:57.709Z,13.9
2016-05-22T02:11:07.693Z,13.8
2016-05-22T02:11:17.681Z,13.8
2016-05-22T02:11:27.681Z,13.8
2016-05-22T02:11:37.696Z,13.8
2016-05-22T02:11:47.665Z,13.8
2016-05-22T02:11:57.681Z,13.9
2016-05-22T02:12:07.681Z,13.9
2016-05-22T02:12:18.105Z,13.9
2016-05-22T02:12:28.074Z,13.8
2016-05-22T02:12:37.527Z,13.8
2016-05-22T02:12:47.668Z,13.8
2016-05-22T02:12:57.887Z,13.8
2016-05-22T02:13:07.652Z,13.8
2016-05-22T02:13:17.655Z,13.8
2016-05-22T02:13:27.655Z,13.8
2016-05-22T02:13:37.655Z,13.8
2016-05-22T02:13:47.655Z,13.8